You are listening to:
RJAA Clearance Delivery #1 - Tokyo, Japan

RJAA 251430Z AUTO 02005KT 340V060 6000 NCD 17/16 Q1010 TEMPO 4000 BR RMK A2983

If stream doesn't start automatically press the play button
If stream stops then reload player then press play